sensor_id;sensor_type;location;lat;lon;timestamp;pressure;altitude;pressure_sealevel;temperature;humidity
73267;BME280;61495;53.400;7.608;2023-01-01T00:01:23;100413.38;;;12.39;83.57
73267;BME280;61495;53.400;7.608;2023-01-01T00:03:50;100396.69;;;12.37;82.76
73267;BME280;61495;53.400;7.608;2023-01-01T00:06:16;100424.16;;;12.51;82.61
73267;BME280;61495;53.400;7.608;2023-01-01T00:08:42;100406.72;;;12.42;82.68
73267;BME280;61495;53.400;7.608;2023-01-01T00:11:09;100406.63;;;12.48;82.07
73267;BME280;61495;53.400;7.608;2023-01-01T00:13:36;100426.25;;;12.49;82.26
73267;BME280;61495;53.400;7.608;2023-01-01T00:16:06;100447.06;;;12.53;82.93
73267;BME280;61495;53.400;7.608;2023-01-01T00:18:32;100425.44;;;12.48;82.61
73267;BME280;61495;53.400;7.608;2023-01-01T00:21:16;100426.25;;;12.49;82.23
73267;BME280;61495;53.400;7.608;2023-01-01T00:23:42;100455.28;;;12.58;83.16
73267;BME280;61495;53.400;7.608;2023-01-01T00:26:13;100438.31;;;12.58;83.40
73267;BME280;61495;53.400;7.608;2023-01-01T00:28:39;100434.53;;;12.47;83.05
73267;BME280;61495;53.400;7.608;2023-01-01T00:31:09;100447.75;;;12.49;83.54
73267;BME280;61495;53.400;7.608;2023-01-01T00:33:36;100450.66;;;12.47;84.01
73267;BME280;61495;53.400;7.608;2023-01-01T00:36:06;100452.88;;;12.50;84.61
73267;BME280;61495;53.400;7.608;2023-01-01T00:38:32;100471.44;;;12.40;84.46
73267;BME280;61495;53.400;7.608;2023-01-01T00:40:58;100452.50;;;12.35;84.97
73267;BME280;61495;53.400;7.608;2023-01-01T00:43:23;100470.13;;;12.31;86.43
73267;BME280;61495;53.400;7.608;2023-01-01T00:45:49;100452.22;;;12.25;87.08
73267;BME280;61495;53.400;7.608;2023-01-01T00:48:18;100472.81;;;12.31;87.25
73267;BME280;61495;53.400;7.608;2023-01-01T00:50:51;100464.63;;;12.26;87.63
73267;BME280;61495;53.400;7.608;2023-01-01T00:53:18;100475.81;;;12.23;88.12
73267;BME280;61495;53.400;7.608;2023-01-01T00:55:47;100473.72;;;12.25;87.80
73267;BME280;61495;53.400;7.608;2023-01-01T00:58:13;100468.06;;;12.15;88.16
73267;BME280;61495;53.400;7.608;2023-01-01T01:00:38;100468.66;;;12.17;88.15
73267;BME280;61495;53.400;7.608;2023-01-01T01:03:04;100452.84;;;12.09;87.57
73267;BME280;61495;53.400;7.608;2023-01-01T01:05:31;100456.59;;;12.08;87.85
73267;BME280;61495;53.400;7.608;2023-01-01T01:07:57;100454.94;;;12.07;88.14
73267;BME280;61495;53.400;7.608;2023-01-01T01:10:23;100451.75;;;11.98;88.62
73267;BME280;61495;53.400;7.608;2023-01-01T01:12:50;100455.38;;;12.04;88.52
73267;BME280;61495;53.400;7.608;2023-01-01T01:15:16;100452.56;;;11.99;88.57
73267;BME280;61495;53.400;7.608;2023-01-01T01:17:42;100461.78;;;12.03;88.40
73267;BME280;61495;53.400;7.608;2023-01-01T01:20:08;100467.63;;;12.00;88.73
73267;BME280;61495;53.400;7.608;2023-01-01T01:22:34;100457.31;;;11.97;88.10
73267;BME280;61495;53.400;7.608;2023-01-01T01:25:00;100448.94;;;11.93;87.62
73267;BME280;61495;53.400;7.608;2023-01-01T01:27:25;100448.09;;;11.93;87.39
73267;BME280;61495;53.400;7.608;2023-01-01T01:29:52;100452.56;;;11.99;87.51
73267;BME280;61495;53.400;7.608;2023-01-01T01:32:18;100460.63;;;11.99;87.76
73267;BME280;61495;53.400;7.608;2023-01-01T01:34:43;100465.16;;;11.98;87.48
73267;BME280;61495;53.400;7.608;2023-01-01T01:37:09;100463.69;;;12.02;88.01
73267;BME280;61495;53.400;7.608;2023-01-01T01:39:36;100463.75;;;11.96;86.98
73267;BME280;61495;53.400;7.608;2023-01-01T01:42:02;100485.50;;;12.06;87.00
73267;BME280;61495;53.400;7.608;2023-01-01T01:49:47;100498.94;;;12.06;87.07
73267;BME280;61495;53.400;7.608;2023-01-01T01:52:14;100495.34;;;12.12;86.71
73267;BME280;61495;53.400;7.608;2023-01-01T01:54:40;100509.53;;;12.19;86.92
73267;BME280;61495;53.400;7.608;2023-01-01T01:57:08;100513.56;;;12.10;87.60
73267;BME280;61495;53.400;7.608;2023-01-01T01:59:39;100481.41;;;12.03;87.05
73267;BME280;61495;53.400;7.608;2023-01-01T02:02:11;100505.38;;;12.05;87.70
73267;BME280;61495;53.400;7.608;2023-01-01T02:04:39;100509.03;;;12.10;86.92
73267;BME280;61495;53.400;7.608;2023-01-01T02:07:06;100491.72;;;12.06;86.72
73267;BME280;61495;53.400;7.608;2023-01-01T02:09:31;100512.09;;;12.14;87.25
73267;BME280;61495;53.400;7.608;2023-01-01T02:11:58;100511.91;;;12.09;86.99
73267;BME280;61495;53.400;7.608;2023-01-01T02:14:23;100510.06;;;12.09;87.63
73267;BME280;61495;53.400;7.608;2023-01-01T02:16:55;100518.63;;;12.18;86.76
73267;BME280;61495;53.400;7.608;2023-01-01T02:29:00;100529.69;;;12.10;89.35
73267;BME280;61495;53.400;7.608;2023-01-01T02:31:30;100525.13;;;11.92;90.06
73267;BME280;61495;53.400;7.608;2023-01-01T02:34:01;100519.97;;;11.91;90.30
73267;BME280;61495;53.400;7.608;2023-01-01T02:36:30;100538.94;;;11.96;89.62
73267;BME280;61495;53.400;7.608;2023-01-01T02:38:59;100540.56;;;11.97;90.35
73267;BME280;61495;53.400;7.608;2023-01-01T02:41:38;100541.00;;;11.94;90.62
73267;BME280;61495;53.400;7.608;2023-01-01T02:44:06;100538.75;;;11.91;90.03
73267;BME280;61495;53.400;7.608;2023-01-01T02:46:33;100551.97;;;11.92;90.25
73267;BME280;61495;53.400;7.608;2023-01-01T02:48:59;100542.56;;;11.83;90.19
73267;BME280;61495;53.400;7.608;2023-01-01T03:03:18;100566.97;;;12.00;88.79
73267;BME280;61495;53.400;7.608;2023-01-01T03:06:07;100559.97;;;11.99;89.37
73267;BME280;61495;53.400;7.608;2023-01-01T03:09:16;100534.66;;;11.88;89.08
73267;BME280;61495;53.400;7.608;2023-01-01T03:12:19;100527.50;;;11.82;89.17
73267;BME280;61495;53.400;7.608;2023-01-01T03:14:45;100527.88;;;11.86;89.01
73267;BME280;61495;53.400;7.608;2023-01-01T03:19:50;100512.41;;;11.88;88.44
73267;BME280;61495;53.400;7.608;2023-01-01T03:22:17;100540.09;;;12.00;88.26
73267;BME280;61495;53.400;7.608;2023-01-01T03:25:12;100522.88;;;11.89;89.00
73267;BME280;61495;53.400;7.608;2023-01-01T03:27:45;100512.22;;;11.83;88.60
73267;BME280;61495;53.400;7.608;2023-01-01T03:30:13;100539.13;;;11.94;88.62
73267;BME280;61495;53.400;7.608;2023-01-01T03:33:03;100533.63;;;11.89;88.41
73267;BME280;61495;53.400;7.608;2023-01-01T03:35:39;100541.19;;;11.99;88.55
73267;BME280;61495;53.400;7.608;2023-01-01T03:38:14;100548.41;;;11.98;88.58
73267;BME280;61495;53.400;7.608;2023-01-01T03:40:42;100517.59;;;11.83;88.39
73267;BME280;61495;53.400;7.608;2023-01-01T03:43:13;100534.47;;;11.90;88.38
73267;BME280;61495;53.400;7.608;2023-01-01T03:45:44;100532.06;;;11.82;88.29
73267;BME280;61495;53.400;7.608;2023-01-01T03:48:11;100548.84;;;11.95;88.43
73267;BME280;61495;53.400;7.608;2023-01-01T03:53:51;100567.69;;;11.89;89.41
73267;BME280;61495;53.400;7.608;2023-01-01T03:59:05;100580.06;;;11.72;90.35
73267;BME280;61495;53.400;7.608;2023-01-01T04:01:47;100609.72;;;11.77;91.69
73267;BME280;61495;53.400;7.608;2023-01-01T04:04:14;100608.19;;;11.62;92.53
73267;BME280;61495;53.400;7.608;2023-01-01T04:06:41;100578.50;;;11.57;92.70
73267;BME280;61495;53.400;7.608;2023-01-01T04:09:11;100621.16;;;11.65;93.40
73267;BME280;61495;53.400;7.608;2023-01-01T04:11:43;100628.44;;;11.58;93.82
73267;BME280;61495;53.400;7.608;2023-01-01T04:14:37;100613.19;;;11.52;94.86
73267;BME280;61495;53.400;7.608;2023-01-01T04:17:03;100633.34;;;11.61;94.67
73267;BME280;61495;53.400;7.608;2023-01-01T04:19:29;100603.41;;;11.40;94.86
73267;BME280;61495;53.400;7.608;2023-01-01T04:21:56;100616.75;;;11.46;95.50
73267;BME280;61495;53.400;7.608;2023-01-01T04:27:33;100609.25;;;11.30;95.75
73267;BME280;61495;53.400;7.608;2023-01-01T04:30:25;100620.19;;;11.29;95.15
73267;BME280;61495;53.400;7.608;2023-01-01T04:32:57;100612.56;;;11.26;95.92
73267;BME280;61495;53.400;7.608;2023-01-01T04:35:28;100636.84;;;11.37;96.06
73267;BME280;61495;53.400;7.608;2023-01-01T04:37:59;100635.06;;;11.31;96.20
73267;BME280;61495;53.400;7.608;2023-01-01T04:40:45;100612.22;;;11.22;96.14
73267;BME280;61495;53.400;7.608;2023-01-01T04:43:52;100604.81;;;11.18;97.43
73267;BME280;61495;53.400;7.608;2023-01-01T04:46:59;100600.53;;;11.10;97.89
73267;BME280;61495;53.400;7.608;2023-01-01T04:49:52;100638.63;;;11.19;97.81
73267;BME280;61495;53.400;7.608;2023-01-01T04:52:26;100611.84;;;11.12;98.13
73267;BME280;61495;53.400;7.608;2023-01-01T04:55:01;100608.06;;;11.20;97.52
73267;BME280;61495;53.400;7.608;2023-01-01T04:57:34;100603.22;;;11.10;97.59
73267;BME280;61495;53.400;7.608;2023-01-01T04:59:59;100619.03;;;11.18;97.88
73267;BME280;61495;53.400;7.608;2023-01-01T05:02:25;100615.53;;;11.18;97.53
73267;BME280;61495;53.400;7.608;2023-01-01T05:04:51;100612.63;;;11.19;97.36
73267;BME280;61495;53.400;7.608;2023-01-01T05:07:17;100627.06;;;11.18;97.21
73267;BME280;61495;53.400;7.608;2023-01-01T05:09:42;100605.88;;;11.10;97.75
73267;BME280;61495;53.400;7.608;2023-01-01T05:12:08;100632.63;;;11.16;97.86
73267;BME280;61495;53.400;7.608;2023-01-01T05:14:34;100625.50;;;11.10;97.92
73267;BME280;61495;53.400;7.608;2023-01-01T05:17:00;100637.41;;;11.14;97.78
73267;BME280;61495;53.400;7.608;2023-01-01T05:19:44;100630.84;;;11.10;97.83
73267;BME280;61495;53.400;7.608;2023-01-01T05:22:09;100632.28;;;11.13;97.66
73267;BME280;61495;53.400;7.608;2023-01-01T05:24:35;100635.38;;;11.10;97.45
73267;BME280;61495;53.400;7.608;2023-01-01T05:27:01;100631.50;;;10.99;97.74
73267;BME280;61495;53.400;7.608;2023-01-01T05:29:27;100646.56;;;11.00;97.62
73267;BME280;61495;53.400;7.608;2023-01-01T05:31:53;100658.88;;;11.08;97.95
73267;BME280;61495;53.400;7.608;2023-01-01T05:34:18;100661.41;;;11.03;97.95
73267;BME280;61495;53.400;7.608;2023-01-01T05:36:44;100666.97;;;11.01;97.49
73267;BME280;61495;53.400;7.608;2023-01-01T05:39:11;100660.81;;;10.94;97.41
73267;BME280;61495;53.400;7.608;2023-01-01T05:41:37;100657.31;;;10.94;97.08
73267;BME280;61495;53.400;7.608;2023-01-01T05:44:04;100647.41;;;10.94;96.95
73267;BME280;61495;53.400;7.608;2023-01-01T05:46:30;100651.69;;;11.02;96.77
73267;BME280;61495;53.400;7.608;2023-01-01T05:48:56;100661.19;;;11.04;96.29
73267;BME280;61495;53.400;7.608;2023-01-01T05:51:59;100687.31;;;11.15;95.79
73267;BME280;61495;53.400;7.608;2023-01-01T05:54:25;100691.88;;;11.08;95.37
73267;BME280;61495;53.400;7.608;2023-01-01T05:56:51;100683.44;;;11.05;95.28
73267;BME280;61495;53.400;7.608;2023-01-01T05:59:16;100679.97;;;11.04;94.79
73267;BME280;61495;53.400;7.608;2023-01-01T06:01:42;100665.75;;;10.97;94.73
73267;BME280;61495;53.400;7.608;2023-01-01T06:04:08;100677.88;;;11.06;94.48
73267;BME280;61495;53.400;7.608;2023-01-01T06:06:33;100676.63;;;11.09;94.55
73267;BME280;61495;53.400;7.608;2023-01-01T06:09:02;100685.69;;;11.08;93.25
73267;BME280;61495;53.400;7.608;2023-01-01T06:11:28;100690.84;;;11.16;93.69
73267;BME280;61495;53.400;7.608;2023-01-01T06:13:57;100681.19;;;11.02;93.70
73267;BME280;61495;53.400;7.608;2023-01-01T06:16:24;100705.25;;;11.15;94.00
73267;BME280;61495;53.400;7.608;2023-01-01T06:18:50;100696.41;;;11.08;93.52
73267;BME280;61495;53.400;7.608;2023-01-01T06:21:22;100698.91;;;11.09;93.72
73267;BME280;61495;53.400;7.608;2023-01-01T06:23:48;100705.09;;;11.10;92.95
73267;BME280;61495;53.400;7.608;2023-01-01T06:26:18;100713.72;;;11.12;93.00
73267;BME280;61495;53.400;7.608;2023-01-01T06:28:45;100721.94;;;11.17;91.41
73267;BME280;61495;53.400;7.608;2023-01-01T06:31:12;100703.00;;;11.12;90.98
73267;BME280;61495;53.400;7.608;2023-01-01T06:33:39;100690.25;;;11.07;90.48
73267;BME280;61495;53.400;7.608;2023-01-01T06:36:08;100705.88;;;11.17;90.44
73267;BME280;61495;53.400;7.608;2023-01-01T06:38:36;100705.91;;;11.10;90.11
73267;BME280;61495;53.400;7.608;2023-01-01T06:41:04;100712.09;;;11.11;90.56
73267;BME280;61495;53.400;7.608;2023-01-01T06:43:32;100731.47;;;11.13;90.01
73267;BME280;61495;53.400;7.608;2023-01-01T06:48:39;100738.88;;;11.11;90.24
73267;BME280;61495;53.400;7.608;2023-01-01T06:51:26;100749.63;;;11.11;89.77
73267;BME280;61495;53.400;7.608;2023-01-01T06:53:53;100755.41;;;11.08;89.59
73267;BME280;61495;53.400;7.608;2023-01-01T06:56:19;100763.25;;;11.03;89.44
73267;BME280;61495;53.400;7.608;2023-01-01T06:58:45;100772.75;;;11.05;88.04
73267;BME280;61495;53.400;7.608;2023-01-01T07:01:16;100786.78;;;11.01;88.94
73267;BME280;61495;53.400;7.608;2023-01-01T07:03:43;100796.03;;;11.05;87.82
73267;BME280;61495;53.400;7.608;2023-01-01T07:06:10;100800.81;;;11.03;88.09
73267;BME280;61495;53.400;7.608;2023-01-01T07:08:35;100787.81;;;11.00;86.77
73267;BME280;61495;53.400;7.608;2023-01-01T07:11:01;100805.56;;;11.01;86.68
73267;BME280;61495;53.400;7.608;2023-01-01T07:13:28;100810.50;;;10.97;86.78
73267;BME280;61495;53.400;7.608;2023-01-01T07:15:54;100820.00;;;11.00;87.00
73267;BME280;61495;53.400;7.608;2023-01-01T07:18:22;100809.91;;;10.89;87.04
73267;BME280;61495;53.400;7.608;2023-01-01T07:21:01;100811.53;;;10.90;85.51
73267;BME280;61495;53.400;7.608;2023-01-01T07:23:29;100822.69;;;10.87;86.52
73267;BME280;61495;53.400;7.608;2023-01-01T07:25:56;100841.25;;;10.95;86.77
73267;BME280;61495;53.400;7.608;2023-01-01T07:28:22;100836.31;;;10.92;85.69
73267;BME280;61495;53.400;7.608;2023-01-01T07:30:49;100851.34;;;10.93;85.68
73267;BME280;61495;53.400;7.608;2023-01-01T07:33:17;100830.53;;;10.82;85.98
73267;BME280;61495;53.400;7.608;2023-01-01T07:35:43;100860.19;;;10.87;86.26
73267;BME280;61495;53.400;7.608;2023-01-01T07:38:10;100862.28;;;10.85;86.42
73267;BME280;61495;53.400;7.608;2023-01-01T07:40:36;100849.94;;;10.71;85.63
73267;BME280;61495;53.400;7.608;2023-01-01T07:43:01;100880.84;;;10.80;85.76
73267;BME280;61495;53.400;7.608;2023-01-01T07:45:27;100896.50;;;10.89;85.07
73267;BME280;61495;53.400;7.608;2023-01-01T07:47:54;100874.66;;;10.73;84.87
73267;BME280;61495;53.400;7.608;2023-01-01T07:50:32;100889.28;;;10.70;85.73
73267;BME280;61495;53.400;7.608;2023-01-01T07:52:58;100897.94;;;10.72;84.54
73267;BME280;61495;53.400;7.608;2023-01-01T07:55:24;100894.22;;;10.67;85.35
73267;BME280;61495;53.400;7.608;2023-01-01T07:57:50;100895.28;;;10.66;84.72
73267;BME280;61495;53.400;7.608;2023-01-01T08:00:18;100920.44;;;10.71;84.85
73267;BME280;61495;53.400;7.608;2023-01-01T08:02:44;100921.66;;;10.69;84.30
73267;BME280;61495;53.400;7.608;2023-01-01T08:05:10;100937.53;;;10.77;84.61
73267;BME280;61495;53.400;7.608;2023-01-01T08:07:36;100929.28;;;10.58;84.31
73267;BME280;61495;53.400;7.608;2023-01-01T08:10:03;100926.59;;;10.58;83.91
73267;BME280;61495;53.400;7.608;2023-01-01T08:12:29;100941.00;;;10.57;84.36
73267;BME280;61495;53.400;7.608;2023-01-01T08:14:55;100967.00;;;10.64;84.05
73267;BME280;61495;53.400;7.608;2023-01-01T08:17:21;100959.97;;;10.56;83.44
73267;BME280;61495;53.400;7.608;2023-01-01T08:19:53;100971.53;;;10.56;83.68
73267;BME280;61495;53.400;7.608;2023-01-01T08:22:18;100990.50;;;10.68;83.03
73267;BME280;61495;53.400;7.608;2023-01-01T08:24:44;100973.16;;;10.51;82.99
73267;BME280;61495;53.400;7.608;2023-01-01T08:27:14;100982.63;;;10.47;84.91
73267;BME280;61495;53.400;7.608;2023-01-01T08:29:41;100992.50;;;10.46;84.04
73267;BME280;61495;53.400;7.608;2023-01-01T08:32:07;100992.91;;;10.43;84.22
73267;BME280;61495;53.400;7.608;2023-01-01T08:34:33;101011.06;;;10.54;84.28
73267;BME280;61495;53.400;7.608;2023-01-01T08:36:58;101012.72;;;10.55;84.36
73267;BME280;61495;53.400;7.608;2023-01-01T08:39:24;101006.91;;;10.45;84.19
73267;BME280;61495;53.400;7.608;2023-01-01T08:41:50;101033.75;;;10.58;85.13
73267;BME280;61495;53.400;7.608;2023-01-01T08:44:16;101018.69;;;10.44;84.08
73267;BME280;61495;53.400;7.608;2023-01-01T08:46:41;101051.28;;;10.61;84.63
73267;BME280;61495;53.400;7.608;2023-01-01T08:49:07;101046.09;;;10.46;85.33
73267;BME280;61495;53.400;7.608;2023-01-01T08:51:39;101052.09;;;10.55;85.27
73267;BME280;61495;53.400;7.608;2023-01-01T08:54:05;101067.16;;;10.56;84.62
73267;BME280;61495;53.400;7.608;2023-01-01T08:56:31;101078.69;;;10.56;85.39
73267;BME280;61495;53.400;7.608;2023-01-01T08:58:57;101063.81;;;10.47;84.56
73267;BME280;61495;53.400;7.608;2023-01-01T09:01:22;101061.31;;;10.46;84.71
73267;BME280;61495;53.400;7.608;2023-01-01T09:03:52;101072.88;;;10.46;85.18
73267;BME280;61495;53.400;7.608;2023-01-01T09:06:17;101091.44;;;10.54;84.70
73267;BME280;61495;53.400;7.608;2023-01-01T09:08:43;101085.28;;;10.54;85.09
73267;BME280;61495;53.400;7.608;2023-01-01T09:11:23;101076.56;;;10.45;85.73
73267;BME280;61495;53.400;7.608;2023-01-01T09:13:50;101075.94;;;10.43;85.00
73267;BME280;61495;53.400;7.608;2023-01-01T09:16:16;101085.28;;;10.54;85.00
73267;BME280;61495;53.400;7.608;2023-01-01T09:18:41;101093.94;;;10.56;85.30
73267;BME280;61495;53.400;7.608;2023-01-01T09:21:10;101089.59;;;10.55;85.56
73267;BME280;61495;53.400;7.608;2023-01-01T09:23:36;101088.09;;;10.46;85.69
73267;BME280;61495;53.400;7.608;2023-01-01T09:26:06;101099.28;;;10.56;84.82
73267;BME280;61495;53.400;7.608;2023-01-01T09:28:33;101108.81;;;10.65;85.14
73267;BME280;61495;53.400;7.608;2023-01-01T09:30:59;101107.50;;;10.54;85.11
73267;BME280;61495;53.400;7.608;2023-01-01T09:33:26;101109.19;;;10.55;85.22
73267;BME280;61495;53.400;7.608;2023-01-01T09:35:52;101103.19;;;10.53;84.68
73267;BME280;61495;53.400;7.608;2023-01-01T09:38:17;101132.31;;;10.70;85.67
73267;BME280;61495;53.400;7.608;2023-01-01T09:40:50;101136.03;;;10.69;85.14
73267;BME280;61495;53.400;7.608;2023-01-01T09:45:59;101138.47;;;10.64;85.34
73267;BME280;61495;53.400;7.608;2023-01-01T09:48:28;101149.84;;;10.66;85.42
73267;BME280;61495;53.400;7.608;2023-01-01T09:50:54;101137.63;;;10.56;85.16
73267;BME280;61495;53.400;7.608;2023-01-01T09:53:33;101162.00;;;10.68;85.66
73267;BME280;61495;53.400;7.608;2023-01-01T09:56:03;101144.22;;;10.60;85.10
73267;BME280;61495;53.400;7.608;2023-01-01T09:58:35;101163.66;;;10.76;86.11
73267;BME280;61495;53.400;7.608;2023-01-01T10:01:37;101142.19;;;10.63;85.27
73267;BME280;61495;53.400;7.608;2023-01-01T10:12:39;101151.75;;;10.85;85.29
73267;BME280;61495;53.400;7.608;2023-01-01T10:15:17;101133.56;;;10.74;85.32
73267;BME280;61495;53.400;7.608;2023-01-01T10:17:58;101124.13;;;10.78;85.81
73267;BME280;61495;53.400;7.608;2023-01-01T10:20:49;101143.13;;;10.89;85.17
73267;BME280;61495;53.400;7.608;2023-01-01T10:23:25;101148.06;;;10.99;85.40
73267;BME280;61495;53.400;7.608;2023-01-01T10:25:55;101126.81;;;10.91;84.88
73267;BME280;61495;53.400;7.608;2023-01-01T10:31:10;101128.69;;;10.97;84.97
73267;BME280;61495;53.400;7.608;2023-01-01T10:33:38;101136.13;;;11.08;84.88
73267;BME280;61495;53.400;7.608;2023-01-01T10:36:04;101144.81;;;11.16;85.53
73267;BME280;61495;53.400;7.608;2023-01-01T10:38:34;101131.63;;;11.15;84.12
73267;BME280;61495;53.400;7.608;2023-01-01T10:41:06;101130.78;;;11.08;84.13
73267;BME280;61495;53.400;7.608;2023-01-01T10:43:33;101137.59;;;11.17;83.64
73267;BME280;61495;53.400;7.608;2023-01-01T10:46:00;101164.66;;;11.35;83.60
73267;BME280;61495;53.400;7.608;2023-01-01T10:48:29;101160.34;;;11.34;83.50
73267;BME280;61495;53.400;7.608;2023-01-01T10:51:03;101159.91;;;11.37;83.20
73267;BME280;61495;53.400;7.608;2023-01-01T10:53:37;101175.63;;;11.53;83.37
73267;BME280;61495;53.400;7.608;2023-01-01T10:56:12;101158.72;;;11.40;82.41
73267;BME280;61495;53.400;7.608;2023-01-01T11:01:08;101172.50;;;11.30;82.69
73267;BME280;61495;53.400;7.608;2023-01-01T11:03:34;101180.56;;;11.43;83.65
73267;BME280;61495;53.400;7.608;2023-01-01T11:08:37;101186.13;;;11.22;83.33
73267;BME280;61495;53.400;7.608;2023-01-01T11:11:04;101197.06;;;11.34;83.98
73267;BME280;61495;53.400;7.608;2023-01-01T11:13:30;101187.38;;;11.33;83.25
73267;BME280;61495;53.400;7.608;2023-01-01T11:15:57;101184.91;;;11.31;83.61
73267;BME280;61495;53.400;7.608;2023-01-01T11:18:31;101172.09;;;11.27;83.21
73267;BME280;61495;53.400;7.608;2023-01-01T11:21:04;101194.59;;;11.32;83.57
73267;BME280;61495;53.400;7.608;2023-01-01T11:23:36;101192.72;;;11.26;83.33
73267;BME280;61495;53.400;7.608;2023-01-01T11:28:36;101196.38;;;11.12;84.34
73267;BME280;61495;53.400;7.608;2023-01-01T11:33:36;101183.56;;;11.01;83.23
73267;BME280;61495;53.400;7.608;2023-01-01T11:36:04;101208.78;;;11.13;83.68
73267;BME280;61495;53.400;7.608;2023-01-01T11:38:30;101176.94;;;10.97;84.20
73267;BME280;61495;53.400;7.608;2023-01-01T11:41:03;101203.56;;;11.05;83.55
73267;BME280;61495;53.400;7.608;2023-01-01T11:43:36;101206.25;;;11.05;84.20
73267;BME280;61495;53.400;7.608;2023-01-01T11:46:08;101227.94;;;11.10;83.89
73267;BME280;61495;53.400;7.608;2023-01-01T11:48:35;101214.28;;;11.05;83.35
73267;BME280;61495;53.400;7.608;2023-01-01T11:51:30;101241.38;;;11.23;82.83
73267;BME280;61495;53.400;7.608;2023-01-01T11:54:33;101249.63;;;11.15;82.89
73267;BME280;61495;53.400;7.608;2023-01-01T11:57:17;101261.22;;;11.22;83.64
73267;BME280;61495;53.400;7.608;2023-01-01T11:59:55;101250.84;;;11.12;82.53
73267;BME280;61495;53.400;7.608;2023-01-01T12:02:47;101235.56;;;11.06;82.78
73267;BME280;61495;53.400;7.608;2023-01-01T12:07:40;101247.53;;;11.04;82.29
73267;BME280;61495;53.400;7.608;2023-01-01T12:10:30;101235.13;;;11.03;83.33
73267;BME280;61495;53.400;7.608;2023-01-01T12:13:02;101254.56;;;11.11;83.47
73267;BME280;61495;53.400;7.608;2023-01-01T12:15:55;101252.91;;;11.10;82.85
73267;BME280;61495;53.400;7.608;2023-01-01T12:18:39;101243.41;;;11.08;83.06
73267;BME280;61495;53.400;7.608;2023-01-01T12:21:37;101244.47;;;11.20;82.54
73267;BME280;61495;53.400;7.608;2023-01-01T12:24:10;101245.94;;;11.16;82.99
73267;BME280;61495;53.400;7.608;2023-01-01T12:29:18;101256.69;;;11.29;82.66
73267;BME280;61495;53.400;7.608;2023-01-01T12:35:00;101276.09;;;11.31;82.16
73267;BME280;61495;53.400;7.608;2023-01-01T12:37:57;101269.91;;;11.37;82.64
73267;BME280;61495;53.400;7.608;2023-01-01T12:40:38;101268.88;;;11.38;82.15
73267;BME280;61495;53.400;7.608;2023-01-01T12:54:30;101282.53;;;11.37;82.44
73267;BME280;61495;53.400;7.608;2023-01-01T12:59:38;101291.38;;;11.31;81.47
73267;BME280;61495;53.400;7.608;2023-01-01T13:02:15;101294.06;;;11.31;81.91
73267;BME280;61495;53.400;7.608;2023-01-01T13:04:44;101288.88;;;11.29;81.65
73267;BME280;61495;53.400;7.608;2023-01-01T13:07:11;101273.13;;;11.13;81.40
73267;BME280;61495;53.400;7.608;2023-01-01T13:09:41;101307.66;;;11.29;81.97
73267;BME280;61495;53.400;7.608;2023-01-01T13:12:19;101316.91;;;11.27;82.50
73267;BME280;61495;53.400;7.608;2023-01-01T13:14:47;101289.84;;;11.15;81.73
73267;BME280;61495;53.400;7.608;2023-01-01T13:17:24;101298.50;;;11.17;81.34
73267;BME280;61495;53.400;7.608;2023-01-01T13:20:21;101312.78;;;11.24;82.04
73267;BME280;61495;53.400;7.608;2023-01-01T13:22:47;101304.13;;;11.22;82.46
73267;BME280;61495;53.400;7.608;2023-01-01T13:33:30;101294.63;;;11.26;82.52
73267;BME280;61495;53.400;7.608;2023-01-01T13:46:40;101280.53;;;11.11;82.67
73267;BME280;61495;53.400;7.608;2023-01-01T14:03:53;101313.94;;;11.08;83.13
73267;BME280;61495;53.400;7.608;2023-01-01T14:06:31;101319.13;;;11.16;82.69
73267;BME280;61495;53.400;7.608;2023-01-01T14:11:34;101312.25;;;11.01;83.00
73267;BME280;61495;53.400;7.608;2023-01-01T14:13:59;101315.09;;;10.93;83.12
73267;BME280;61495;53.400;7.608;2023-01-01T14:16:26;101343.66;;;11.07;84.20
73267;BME280;61495;53.400;7.608;2023-01-01T14:18:55;101333.84;;;10.93;82.86
73267;BME280;61495;53.400;7.608;2023-01-01T14:21:29;101328.69;;;10.91;83.38
73267;BME280;61495;53.400;7.608;2023-01-01T14:23:59;101334.91;;;10.92;83.21
73267;BME280;61495;53.400;7.608;2023-01-01T14:26:27;101337.75;;;10.90;83.54
73267;BME280;61495;53.400;7.608;2023-01-01T14:28:56;101349.94;;;10.93;83.29
73267;BME280;61495;53.400;7.608;2023-01-01T14:31:30;101331.34;;;10.85;83.42
73267;BME280;61495;53.400;7.608;2023-01-01T14:33:56;101330.81;;;10.68;83.79
73267;BME280;61495;53.400;7.608;2023-01-01T14:36:30;101356.56;;;10.69;83.57
73267;BME280;61495;53.400;7.608;2023-01-01T14:38:58;101362.75;;;10.70;83.79
73267;BME280;61495;53.400;7.608;2023-01-01T14:41:30;101363.53;;;10.64;83.75
73267;BME280;61495;53.400;7.608;2023-01-01T14:46:28;101369.34;;;10.67;83.47
73267;BME280;61495;53.400;7.608;2023-01-01T14:48:57;101363.94;;;10.60;83.55
73267;BME280;61495;53.400;7.608;2023-01-01T14:51:29;101374.91;;;10.66;83.93
73267;BME280;61495;53.400;7.608;2023-01-01T14:53:58;101377.72;;;10.57;84.22
73267;BME280;61495;53.400;7.608;2023-01-01T14:56:32;101394.06;;;10.63;84.02
73267;BME280;61495;53.400;7.608;2023-01-01T15:01:36;101366.63;;;10.39;83.97
73267;BME280;61495;53.400;7.608;2023-01-01T15:04:17;101374.66;;;10.39;84.12
73267;BME280;61495;53.400;7.608;2023-01-01T15:06:43;101374.94;;;10.44;84.95
73267;BME280;61495;53.400;7.608;2023-01-01T15:09:14;101382.31;;;10.42;84.38
73267;BME280;61495;53.400;7.608;2023-01-01T15:11:40;101386.03;;;10.41;85.07
73267;BME280;61495;53.400;7.608;2023-01-01T15:14:36;101369.06;;;10.34;85.20
73267;BME280;61495;53.400;7.608;2023-01-01T15:17:09;101366.97;;;10.30;85.75